Time;durP1;ratioP1;P1;durP2;ratioP2;P2;SDS_P1;SDS_P2;PMS_P1;PMS_P2;Temp;Humidity;BMP_temperature;BMP_pressure;BME280_temperature;BME280_humidity;BME280_pressure;Samples;Min_cycle;Max_cycle;Signal;HPM_P1;HPM_P2
2022/01/04 00:02:13;;;;;;;39.40;5.33;;;;;;;;;;5055340;28;20298;-76
2022/01/04 00:04:39;;;;;;;26.83;5.87;;;;;;;;;;5055783;28;20342;-76
2022/01/04 00:07:05;;;;;;;29.00;4.37;;;;;;;;;;5054511;28;20287;-76
2022/01/04 00:09:34;;;;;;;30.20;4.00;;;;;;;;;;5055223;28;20275;-76
2022/01/04 00:13:22;;;;;;;30.90;4.87;;;;;;;;;;5055534;28;20825;-76
2022/01/04 00:14:46;;;;;;;24.97;4.53;;;;;;;;;;5055134;28;20302;-77
2022/01/04 00:17:12;;;;;;;32.33;6.27;;;;;;;;;;5055115;28;20335;-76
2022/01/04 00:19:38;;;;;;;29.67;4.50;;;;;;;;;;5055310;28;20315;-76
2022/01/04 00:22:06;;;;;;;31.47;4.87;;;;;;;;;;5055294;28;20311;-76
2022/01/04 00:24:32;;;;;;;32.17;4.93;;;;;;;;;;5054875;28;20306;-76
2022/01/04 00:26:58;;;;;;;32.73;4.53;;;;;;;;;;5054307;28;20848;-76
2022/01/04 00:29:24;;;;;;;29.63;4.67;;;;;;;;;;5054697;28;20279;-76
2022/01/04 00:31:50;;;;;;;34.30;5.47;;;;;;;;;;5055280;28;20279;-76
2022/01/04 00:34:16;;;;;;;28.63;5.77;;;;;;;;;;5054741;28;20315;-76
2022/01/04 00:36:42;;;;;;;33.33;5.77;;;;;;;;;;5054990;28;20318;-76
2022/01/04 00:39:08;;;;;;;31.23;5.97;;;;;;;;;;5054863;28;20942;-76
2022/01/04 00:41:34;;;;;;;34.43;4.90;;;;;;;;;;5054582;28;20283;-76
2022/01/04 00:44:01;;;;;;;29.17;4.63;;;;;;;;;;5054934;28;20279;-76
2022/01/04 00:46:27;;;;;;;30.97;5.00;;;;;;;;;;5054407;28;20296;-76
2022/01/04 00:49:11;;;;;;;29.23;4.67;;;;;;;;;;5054809;28;20605;-76
2022/01/04 00:51:41;;;;;;;33.10;5.03;;;;;;;;;;5053733;28;20280;-76
2022/01/04 00:54:08;;;;;;;28.53;4.67;;;;;;;;;;5053483;28;20302;-76
2022/01/04 00:56:35;;;;;;;26.37;5.20;;;;;;;;;;5054353;28;20711;-76
2022/01/04 00:59:01;;;;;;;29.97;5.37;;;;;;;;;;5054770;28;20370;-76
2022/01/04 01:01:27;;;;;;;31.37;5.50;;;;;;;;;;5054261;28;20370;-76
2022/01/04 01:03:54;;;;;;;33.40;5.60;;;;;;;;;;5054454;28;20279;-76
2022/01/04 01:06:20;;;;;;;29.53;5.40;;;;;;;;;;5054093;28;20382;-76
2022/01/04 01:08:47;;;;;;;30.90;5.03;;;;;;;;;;5054410;28;20358;-76
2022/01/04 01:11:13;;;;;;;36.50;5.43;;;;;;;;;;5054425;28;20366;-76
2022/01/04 01:13:39;;;;;;;30.07;5.40;;;;;;;;;;5054045;28;20279;-76
2022/01/04 01:16:06;;;;;;;40.23;7.23;;;;;;;;;;5052918;28;20377;-76
2022/01/04 01:18:32;;;;;;;33.73;6.20;;;;;;;;;;5054071;28;20287;-76
2022/01/04 01:20:59;;;;;;;30.57;5.77;;;;;;;;;;5053250;28;20294;-76
2022/01/04 01:23:26;;;;;;;35.93;5.90;;;;;;;;;;5053912;28;20627;-76
2022/01/04 01:25:52;;;;;;;37.53;6.43;;;;;;;;;;5054200;28;20375;-76
2022/01/04 01:28:18;;;;;;;32.73;5.90;;;;;;;;;;5053923;28;20358;-79
2022/01/04 01:30:45;;;;;;;31.17;5.57;;;;;;;;;;5053955;28;20290;-76
2022/01/04 01:33:11;;;;;;;35.23;6.20;;;;;;;;;;5054149;28;20359;-76
2022/01/04 01:35:38;;;;;;;36.37;7.93;;;;;;;;;;5053687;28;20355;-76
2022/01/04 01:38:05;;;;;;;32.53;6.23;;;;;;;;;;5054004;28;20287;-76
2022/01/04 01:40:32;;;;;;;36.43;7.33;;;;;;;;;;5053630;28;20340;-76
2022/01/04 01:42:58;;;;;;;33.77;6.47;;;;;;;;;;5053785;28;20408;-76
2022/01/04 01:45:24;;;;;;;27.67;5.30;;;;;;;;;;5053309;28;20338;-76
2022/01/04 01:47:51;;;;;;;33.50;6.63;;;;;;;;;;5052545;28;20291;-76
2022/01/04 01:50:18;;;;;;;32.47;6.90;;;;;;;;;;5053260;28;20315;-76
2022/01/04 01:52:46;;;;;;;32.10;7.50;;;;;;;;;;5053242;28;20315;-76
2022/01/04 01:55:12;;;;;;;36.33;6.70;;;;;;;;;;5053526;28;20282;-76
2022/01/04 01:57:39;;;;;;;36.60;7.03;;;;;;;;;;5053073;28;20330;-76
2022/01/04 02:00:07;;;;;;;32.50;6.90;;;;;;;;;;5053461;28;20373;-76
2022/01/04 02:02:33;;;;;;;33.47;7.83;;;;;;;;;;5053038;28;20349;-76
2022/01/04 02:04:59;;;;;;;40.53;7.90;;;;;;;;;;5053212;28;20295;-76
2022/01/04 02:07:25;;;;;;;35.53;7.20;;;;;;;;;;5053067;28;20333;-77
2022/01/04 02:10:13;;;;;;;37.90;6.47;;;;;;;;;;5053305;28;20315;-76
2022/01/04 02:12:39;;;;;;;34.77;6.67;;;;;;;;;;5052378;28;20298;-76
2022/01/04 02:15:06;;;;;;;32.03;6.27;;;;;;;;;;5052871;28;20332;-76
2022/01/04 02:17:33;;;;;;;36.87;7.53;;;;;;;;;;5052912;28;20279;-76
2022/01/04 02:19:59;;;;;;;35.13;7.93;;;;;;;;;;5053088;28;20293;-76
2022/01/04 02:22:26;;;;;;;39.73;7.97;;;;;;;;;;5052764;28;20276;-77
2022/01/04 02:24:52;;;;;;;39.23;6.60;;;;;;;;;;5052950;28;20346;-76
2022/01/04 02:27:19;;;;;;;37.67;8.00;;;;;;;;;;5053024;28;20311;-76
2022/01/04 02:29:45;;;;;;;40.60;7.60;;;;;;;;;;5052670;28;20390;-76
2022/01/04 02:32:12;;;;;;;32.77;6.80;;;;;;;;;;5052985;28;20315;-76
2022/01/04 02:34:39;;;;;;;39.47;6.53;;;;;;;;;;5052652;28;20369;-76
2022/01/04 02:37:06;;;;;;;40.00;7.10;;;;;;;;;;5052942;28;20370;-76
2022/01/04 02:39:35;;;;;;;35.97;6.50;;;;;;;;;;5052516;28;20755;-76
2022/01/04 02:42:01;;;;;;;35.67;7.40;;;;;;;;;;5053075;28;20276;-76
2022/01/04 02:44:28;;;;;;;36.63;7.87;;;;;;;;;;5052642;28;20271;-77
2022/01/04 02:46:54;;;;;;;44.73;7.23;;;;;;;;;;5052822;28;20318;-76
2022/01/04 02:49:20;;;;;;;38.03;6.80;;;;;;;;;;5052750;28;20279;-76
2022/01/04 02:51:46;;;;;;;37.67;7.33;;;;;;;;;;5052380;28;20283;-76
2022/01/04 02:54:12;;;;;;;38.97;8.07;;;;;;;;;;5052727;28;20674;-76
2022/01/04 02:56:38;;;;;;;44.93;7.40;;;;;;;;;;5051215;28;20342;-76
2022/01/04 02:59:04;;;;;;;41.10;8.70;;;;;;;;;;5052459;28;20341;-76
2022/01/04 03:01:31;;;;;;;33.57;6.80;;;;;;;;;;5034772;28;20635;-76
2022/01/04 03:03:57;;;;;;;38.23;7.67;;;;;;;;;;5052660;28;20280;-76
2022/01/04 03:06:23;;;;;;;35.80;7.13;;;;;;;;;;5051389;28;20307;-76
2022/01/04 03:08:49;;;;;;;36.20;8.33;;;;;;;;;;5051324;28;21301;-76
2022/01/04 03:11:15;;;;;;;35.33;8.43;;;;;;;;;;5052617;28;20298;-76
2022/01/04 03:13:42;;;;;;;33.13;6.93;;;;;;;;;;5034791;28;20291;-76
2022/01/04 03:16:08;;;;;;;37.20;7.83;;;;;;;;;;5054814;28;20298;-76
2022/01/04 03:18:36;;;;;;;37.00;8.00;;;;;;;;;;5056181;28;20742;-76
2022/01/04 03:21:02;;;;;;;35.60;6.03;;;;;;;;;;5056436;28;20280;-76
2022/01/04 03:23:28;;;;;;;36.17;8.17;;;;;;;;;;5055329;28;20329;-76
2022/01/04 03:25:54;;;;;;;31.83;7.17;;;;;;;;;;5055983;28;20295;-76
2022/01/04 03:28:22;;;;;;;37.93;8.07;;;;;;;;;;5056304;28;20362;-76
2022/01/04 03:30:48;;;;;;;31.57;7.07;;;;;;;;;;5056032;28;20279;-76
2022/01/04 03:33:15;;;;;;;29.23;5.97;;;;;;;;;;5056235;28;20282;-76
2022/01/04 03:35:41;;;;;;;30.70;6.70;;;;;;;;;;5056001;28;20696;-76
2022/01/04 03:38:07;;;;;;;38.23;6.40;;;;;;;;;;5055384;28;20379;-76
2022/01/04 03:40:33;;;;;;;30.20;7.30;;;;;;;;;;5055818;28;20505;-76
2022/01/04 03:42:59;;;;;;;36.07;7.20;;;;;;;;;;5056048;28;20362;-76
2022/01/04 03:45:25;;;;;;;30.83;6.47;;;;;;;;;;5055985;28;20697;-76
2022/01/04 03:47:52;;;;;;;36.37;6.70;;;;;;;;;;5055703;28;20724;-76
2022/01/04 03:50:18;;;;;;;37.97;6.53;;;;;;;;;;5055952;28;20284;-75
2022/01/04 03:52:44;;;;;;;32.33;5.73;;;;;;;;;;5055514;28;20417;-75
2022/01/04 03:55:11;;;;;;;32.67;6.93;;;;;;;;;;5055718;28;20326;-75
2022/01/04 03:57:37;;;;;;;38.07;7.30;;;;;;;;;;5055240;28;20802;-75
2022/01/04 04:00:07;;;;;;;37.67;7.70;;;;;;;;;;5055826;28;20275;-75
2022/01/04 04:02:33;;;;;;;32.37;6.53;;;;;;;;;;5055758;28;20283;-75
2022/01/04 04:04:59;;;;;;;35.77;6.40;;;;;;;;;;5055369;28;20306;-75
2022/01/04 04:07:25;;;;;;;34.37;6.93;;;;;;;;;;5055588;28;20283;-75
2022/01/04 04:09:52;;;;;;;34.43;7.07;;;;;;;;;;5055278;28;20316;-75
2022/01/04 04:12:18;;;;;;;31.20;7.03;;;;;;;;;;5055533;28;20621;-75
2022/01/04 04:14:44;;;;;;;29.87;6.50;;;;;;;;;;5055152;28;20742;-75
2022/01/04 04:17:10;;;;;;;42.07;7.37;;;;;;;;;;5054727;28;20288;-75
2022/01/04 04:19:36;;;;;;;35.20;7.43;;;;;;;;;;5055244;28;20750;-78
2022/01/04 04:22:02;;;;;;;41.80;8.27;;;;;;;;;;5054687;28;20794;-75
2022/01/04 04:24:29;;;;;;;37.17;6.67;;;;;;;;;;5054309;28;20662;-75
2022/01/04 04:26:55;;;;;;;34.87;6.97;;;;;;;;;;5053723;28;20283;-75
2022/01/04 04:29:21;;;;;;;39.87;7.30;;;;;;;;;;5054103;28;20362;-75
2022/01/04 04:31:47;;;;;;;36.07;7.00;;;;;;;;;;5054489;28;20865;-75
2022/01/04 04:34:13;;;;;;;37.93;5.97;;;;;;;;;;5055166;28;20294;-75
2022/01/04 04:36:39;;;;;;;33.97;6.93;;;;;;;;;;5054719;28;20280;-76
2022/01/04 04:39:05;;;;;;;38.63;5.93;;;;;;;;;;5054946;28;20290;-75
2022/01/04 04:41:31;;;;;;;37.27;6.57;;;;;;;;;;5055009;28;20271;-75
2022/01/04 04:43:58;;;;;;;37.87;7.07;;;;;;;;;;5053672;28;20299;-75
2022/01/04 04:46:24;;;;;;;38.40;8.50;;;;;;;;;;5054793;28;20334;-75
2022/01/04 04:48:50;;;;;;;40.97;6.57;;;;;;;;;;5054517;28;20276;-76
2022/01/04 04:51:16;;;;;;;38.07;8.03;;;;;;;;;;5054706;28;20834;-76
2022/01/04 04:53:42;;;;;;;33.30;7.00;;;;;;;;;;5054405;28;20311;-76
2022/01/04 04:56:08;;;;;;;36.17;6.53;;;;;;;;;;5053801;28;20367;-76
2022/01/04 04:58:34;;;;;;;40.53;7.03;;;;;;;;;;5053778;28;20291;-76
2022/01/04 05:01:00;;;;;;;34.77;7.13;;;;;;;;;;5052827;28;20302;-75
2022/01/04 05:03:27;;;;;;;37.60;7.00;;;;;;;;;;5053684;28;20290;-76
2022/01/04 05:05:53;;;;;;;40.50;7.07;;;;;;;;;;5054246;28;20296;-76
2022/01/04 05:08:19;;;;;;;35.97;8.10;;;;;;;;;;5054673;28;20362;-76
2022/01/04 05:10:46;;;;;;;45.17;8.20;;;;;;;;;;5053832;28;20774;-76
2022/01/04 05:13:12;;;;;;;35.40;7.07;;;;;;;;;;5054533;28;20358;-75
2022/01/04 05:15:38;;;;;;;38.57;6.47;;;;;;;;;;5054042;28;20362;-76
2022/01/04 05:18:04;;;;;;;39.63;7.27;;;;;;;;;;5053959;28;20311;-76
2022/01/04 05:20:30;;;;;;;31.43;7.10;;;;;;;;;;5054201;28;20279;-76
2022/01/04 05:22:57;;;;;;;43.93;8.50;;;;;;;;;;5053588;28;20830;-76
2022/01/04 05:25:23;;;;;;;32.97;8.00;;;;;;;;;;5053037;28;20314;-76
2022/01/04 05:27:49;;;;;;;30.20;7.37;;;;;;;;;;5053793;28;20276;-76
2022/01/04 05:30:15;;;;;;;40.03;7.30;;;;;;;;;;5054002;28;20695;-76
2022/01/04 05:32:41;;;;;;;34.50;7.97;;;;;;;;;;5054187;28;20358;-76
2022/01/04 05:35:08;;;;;;;39.70;7.77;;;;;;;;;;5053647;28;20754;-76
2022/01/04 05:37:34;;;;;;;34.10;7.10;;;;;;;;;;5052719;28;20353;-75
2022/01/04 05:40:00;;;;;;;45.10;7.90;;;;;;;;;;5053604;28;20358;-76
2022/01/04 05:42:26;;;;;;;37.67;8.30;;;;;;;;;;5053770;28;20371;-76
2022/01/04 05:44:52;;;;;;;40.07;7.97;;;;;;;;;;5035900;28;20698;-76
2022/01/04 05:47:19;;;;;;;29.43;7.70;;;;;;;;;;5053442;28;20824;-76
2022/01/04 05:49:45;;;;;;;37.80;7.60;;;;;;;;;;5036204;28;20287;-76
2022/01/04 05:52:11;;;;;;;37.77;7.47;;;;;;;;;;5053509;28;20287;-76
2022/01/04 05:54:37;;;;;;;35.33;8.10;;;;;;;;;;5053592;28;20276;-76
2022/01/04 05:57:03;;;;;;;42.17;7.17;;;;;;;;;;5053241;28;20275;-76
2022/01/04 05:59:29;;;;;;;31.23;7.13;;;;;;;;;;5053880;28;20646;-76
2022/01/04 06:01:55;;;;;;;43.20;7.93;;;;;;;;;;5051931;28;20283;-75
2022/01/04 06:04:21;;;;;;;42.10;8.33;;;;;;;;;;5052546;28;20692;-73
2022/01/04 06:06:48;;;;;;;43.90;9.43;;;;;;;;;;5053040;28;20663;-78
2022/01/04 06:09:22;;;;;;;36.50;7.87;;;;;;;;;;5053523;28;20271;-73
2022/01/04 06:16:59;;;;;;;35.93;8.13;;;;;;;;;;5052882;28;20291;-74
2022/01/04 06:19:26;;;;;;;39.73;8.13;;;;;;;;;;5053157;28;20294;-74
2022/01/04 06:21:52;;;;;;;39.73;8.13;;;;;;;;;;5052911;28;20283;-74
2022/01/04 06:24:18;;;;;;;44.40;8.40;;;;;;;;;;5052149;28;20291;-74
2022/01/04 06:26:45;;;;;;;40.07;8.13;;;;;;;;;;5053015;28;20299;-74
2022/01/04 06:29:11;;;;;;;40.77;8.40;;;;;;;;;;5052829;28;20271;-75
2022/01/04 06:31:39;;;;;;;40.80;8.57;;;;;;;;;;5053039;28;20362;-75
2022/01/04 06:34:05;;;;;;;33.77;7.10;;;;;;;;;;5052724;28;20346;-75
2022/01/04 06:36:31;;;;;;;30.70;7.40;;;;;;;;;;5052948;28;20268;-74
2022/01/04 06:38:57;;;;;;;25.20;6.33;;;;;;;;;;5052635;28;20279;-75
2022/01/04 06:41:23;;;;;;;20.23;5.20;;;;;;;;;;5052873;28;20319;-75
2022/01/04 06:43:50;;;;;;;25.37;4.80;;;;;;;;;;5051889;28;20292;-75
2022/01/04 06:46:16;;;;;;;22.10;4.97;;;;;;;;;;5052548;28;20382;-75
2022/01/04 06:48:42;;;;;;;25.77;5.20;;;;;;;;;;5052421;28;20358;-74
2022/01/04 06:51:09;;;;;;;34.03;7.23;;;;;;;;;;5051351;28;20374;-74
2022/01/04 06:53:36;;;;;;;29.27;6.10;;;;;;;;;;5052764;28;20275;-74
2022/01/04 06:56:02;;;;;;;34.00;7.93;;;;;;;;;;5052465;28;20272;-72
2022/01/04 06:58:28;;;;;;;27.50;7.30;;;;;;;;;;5052696;28;20366;-72
2022/01/04 07:00:54;;;;;;;38.10;10.13;;;;;;;;;;5051293;28;20643;-74
2022/01/04 07:03:20;;;;;;;34.10;9.60;;;;;;;;;;5052944;28;20283;-72
2022/01/04 07:05:47;;;;;;;40.70;10.03;;;;;;;;;;5051604;28;20714;-72
2022/01/04 07:08:13;;;;;;;34.63;9.87;;;;;;;;;;5052500;28;20292;-71
2022/01/04 07:10:39;;;;;;;38.77;10.30;;;;;;;;;;5052823;28;20341;-73
2022/01/04 07:13:05;;;;;;;35.23;8.93;;;;;;;;;;5052331;28;20286;-74
2022/01/04 07:15:31;;;;;;;39.10;9.97;;;;;;;;;;5052654;28;20367;-71
2022/01/04 07:17:57;;;;;;;47.43;10.00;;;;;;;;;;5052050;28;20786;-70
2022/01/04 07:20:23;;;;;;;43.93;9.70;;;;;;;;;;5052436;28;20326;-70
2022/01/04 07:22:50;;;;;;;28.10;7.70;;;;;;;;;;5051740;28;20323;-71
2022/01/04 07:25:16;;;;;;;22.90;5.63;;;;;;;;;;5050225;28;20361;-71
2022/01/04 07:27:42;;;;;;;23.53;4.97;;;;;;;;;;5052631;28;20282;-71
2022/01/04 07:30:09;;;;;;;17.27;3.93;;;;;;;;;;5052507;28;20359;-72
2022/01/04 07:32:35;;;;;;;15.87;3.80;;;;;;;;;;5051722;28;20278;-72
2022/01/04 07:35:01;;;;;;;12.20;2.90;;;;;;;;;;5052101;28;20758;-72
2022/01/04 07:37:27;;;;;;;19.57;3.73;;;;;;;;;;5052722;28;20286;-72
2022/01/04 07:39:53;;;;;;;17.27;3.67;;;;;;;;;;5052648;28;20279;-72
2022/01/04 07:42:19;;;;;;;20.30;4.63;;;;;;;;;;5052338;28;20279;-71
2022/01/04 07:44:46;;;;;;;24.70;5.57;;;;;;;;;;5052442;28;20288;-71
2022/01/04 07:47:12;;;;;;;22.70;5.33;;;;;;;;;;5052513;28;20272;-72
2022/01/04 07:49:38;;;;;;;27.43;7.20;;;;;;;;;;5052439;28;20282;-72
2022/01/04 07:52:04;;;;;;;28.03;6.93;;;;;;;;;;5052214;28;20446;-72
2022/01/04 07:54:30;;;;;;;27.27;6.93;;;;;;;;;;5052436;28;20287;-72
2022/01/04 07:56:56;;;;;;;25.07;6.73;;;;;;;;;;5052509;28;20283;-72
2022/01/04 07:59:23;;;;;;;28.27;5.87;;;;;;;;;;5052141;28;20791;-72
2022/01/04 08:01:49;;;;;;;30.60;6.13;;;;;;;;;;5054013;28;20279;-72
2022/01/04 08:04:15;;;;;;;25.30;4.93;;;;;;;;;;5055704;28;20307;-72
2022/01/04 08:06:41;;;;;;;23.60;4.63;;;;;;;;;;5055745;28;20361;-72
2022/01/04 08:09:07;;;;;;;22.70;5.03;;;;;;;;;;5054349;28;20290;-72
2022/01/04 08:11:34;;;;;;;36.37;5.10;;;;;;;;;;5055732;28;20816;-72
2022/01/04 08:14:00;;;;;;;31.53;5.53;;;;;;;;;;5055440;28;20373;-78
2022/01/04 08:16:26;;;;;;;27.27;4.63;;;;;;;;;;5055928;28;20765;-72
2022/01/04 08:18:52;;;;;;;33.67;4.70;;;;;;;;;;5054638;28;20383;-72
2022/01/04 08:21:18;;;;;;;25.00;3.70;;;;;;;;;;5055429;28;20362;-72
2022/01/04 08:23:44;;;;;;;35.83;5.07;;;;;;;;;;5054454;28;20771;-72
2022/01/04 08:26:10;;;;;;;32.70;4.63;;;;;;;;;;5054078;28;20304;-72
2022/01/04 08:28:36;;;;;;;22.03;3.27;;;;;;;;;;5054365;28;20697;-72
2022/01/04 08:31:03;;;;;;;29.03;4.57;;;;;;;;;;5055245;28;20279;-72
2022/01/04 08:33:29;;;;;;;31.27;4.13;;;;;;;;;;5055653;28;20402;-72
2022/01/04 08:35:55;;;;;;;25.97;4.97;;;;;;;;;;5055307;28;20359;-72
2022/01/04 08:38:21;;;;;;;23.60;4.00;;;;;;;;;;5054150;28;20295;-72
2022/01/04 08:40:48;;;;;;;23.13;3.90;;;;;;;;;;5055277;28;20362;-72
2022/01/04 08:43:14;;;;;;;16.43;3.20;;;;;;;;;;5055044;28;20287;-72
2022/01/04 08:45:40;;;;;;;13.53;2.97;;;;;;;;;;5055124;28;20291;-72
2022/01/04 08:48:06;;;;;;;10.83;2.67;;;;;;;;;;5054832;28;20285;-72
2022/01/04 08:50:33;;;;;;;9.87;1.93;;;;;;;;;;5054754;28;20809;-72
2022/01/04 08:53:00;;;;;;;11.47;2.83;;;;;;;;;;5054998;28;20294;-72
2022/01/04 08:55:26;;;;;;;11.37;2.50;;;;;;;;;;5054785;28;20275;-72
2022/01/04 08:57:52;;;;;;;9.80;2.00;;;;;;;;;;5054912;28;20279;-72
2022/01/04 09:00:18;;;;;;;7.40;1.70;;;;;;;;;;5054632;28;20322;-72
2022/01/04 09:02:44;;;;;;;7.67;1.30;;;;;;;;;;5054999;28;20287;-72
2022/01/04 09:05:11;;;;;;;13.00;2.40;;;;;;;;;;5054495;28;20349;-72
2022/01/04 09:07:37;;;;;;;7.47;1.27;;;;;;;;;;5054725;28;20306;-72
2022/01/04 09:10:04;;;;;;;8.57;1.70;;;;;;;;;;5053638;28;20283;-72
2022/01/04 09:12:47;;;;;;;6.67;1.20;;;;;;;;;;5054042;28;20280;-72
2022/01/04 09:20:47;;;;;;;7.60;1.53;;;;;;;;;;5054975;28;20271;-72
2022/01/04 09:23:15;;;;;;;6.60;1.17;;;;;;;;;;5054238;28;20333;-72
2022/01/04 09:25:42;;;;;;;7.77;1.40;;;;;;;;;;5054336;28;20809;-72
2022/01/04 09:28:09;;;;;;;9.57;1.60;;;;;;;;;;5054088;28;20296;-73
2022/01/04 09:30:35;;;;;;;9.43;1.50;;;;;;;;;;5054361;28;20418;-72
2022/01/04 09:33:02;;;;;;;13.23;1.90;;;;;;;;;;5054348;28;20275;-72
2022/01/04 09:35:29;;;;;;;7.53;1.40;;;;;;;;;;5054068;28;20315;-72
2022/01/04 09:37:55;;;;;;;8.57;1.37;;;;;;;;;;5054311;28;20286;-72
2022/01/04 09:40:21;;;;;;;8.57;1.27;;;;;;;;;;5053875;28;20286;-72
2022/01/04 09:42:49;;;;;;;9.33;1.30;;;;;;;;;;5054114;28;20362;-72
2022/01/04 09:45:15;;;;;;;8.10;1.80;;;;;;;;;;5053785;28;20301;-72
2022/01/04 09:47:42;;;;;;;5.83;1.20;;;;;;;;;;5054139;28;20421;-72
2022/01/04 09:50:10;;;;;;;13.03;2.80;;;;;;;;;;5054069;28;20312;-72
2022/01/04 09:52:42;;;;;;;8.70;2.60;;;;;;;;;;5053897;28;20279;-72
2022/01/04 09:55:08;;;;;;;10.80;1.90;;;;;;;;;;5053836;28;20276;-72
2022/01/04 09:57:34;;;;;;;6.90;1.40;;;;;;;;;;5053572;28;20281;-73
2022/01/04 10:00:00;;;;;;;7.57;1.60;;;;;;;;;;5053775;28;20362;-72
2022/01/04 10:02:30;;;;;;;12.70;5.40;;;;;;;;;;5053457;28;20276;-73
2022/01/04 10:05:11;;;;;;;8.83;2.30;;;;;;;;;;5052749;28;20307;-72
2022/01/04 10:07:38;;;;;;;9.83;2.43;;;;;;;;;;5053876;28;20291;-72
2022/01/04 10:10:05;;;;;;;8.53;3.07;;;;;;;;;;5053666;28;20763;-72
2022/01/04 10:12:47;;;;;;;9.27;2.00;;;;;;;;;;5053299;28;20361;-73
2022/01/04 10:15:13;;;;;;;7.00;2.23;;;;;;;;;;5052973;28;20328;-73
2022/01/04 10:17:40;;;;;;;5.37;1.47;;;;;;;;;;5053420;28;20311;-73
2022/01/04 10:20:07;;;;;;;4.47;1.40;;;;;;;;;;5053413;28;20367;-72
2022/01/04 10:22:35;;;;;;;5.43;1.60;;;;;;;;;;5053142;28;20291;-72
2022/01/04 10:25:01;;;;;;;8.17;1.33;;;;;;;;;;5052430;28;20353;-72
2022/01/04 10:27:36;;;;;;;8.70;1.50;;;;;;;;;;5053153;28;20361;-73
2022/01/04 10:30:20;;;;;;;4.68;0.90;;;;;;;;;;5052263;28;20429;-72
2022/01/04 10:32:46;;;;;;;4.63;2.20;;;;;;;;;;5053440;28;20087;-72
2022/01/04 10:35:19;;;;;;;8.30;1.10;;;;;;;;;;5053170;28;20291;-72
2022/01/04 10:37:45;;;;;;;5.53;1.13;;;;;;;;;;5053487;28;20271;-72
2022/01/04 10:40:12;;;;;;;4.20;0.90;;;;;;;;;;5053291;28;20297;-73
2022/01/04 10:42:38;;;;;;;4.70;1.00;;;;;;;;;;5052831;28;20286;-72
2022/01/04 10:45:23;;;;;;;6.27;0.90;;;;;;;;;;5051983;28;20889;-73
2022/01/04 10:47:49;;;;;;;5.65;1.02;;;;;;;;;;5053104;28;20284;-72
2022/01/04 10:50:28;;;;;;;3.23;0.60;;;;;;;;;;5053010;28;20114;-74
2022/01/04 10:52:55;;;;;;;2.90;0.60;;;;;;;;;;5053190;28;20662;-72
2022/01/04 10:55:21;;;;;;;5.50;0.87;;;;;;;;;;5052841;28;20275;-72
2022/01/04 10:57:48;;;;;;;5.20;0.97;;;;;;;;;;5052110;28;20370;-72
2022/01/04 11:00:20;;;;;;;6.70;1.17;;;;;;;;;;5052941;28;20710;-72
2022/01/04 11:02:47;;;;;;;7.07;1.17;;;;;;;;;;5052036;28;20299;-72
2022/01/04 11:05:14;;;;;;;7.70;1.23;;;;;;;;;;5052831;28;20322;-72
2022/01/04 11:08:09;;;;;;;7.63;2.10;;;;;;;;;;5052700;28;20288;-72
2022/01/04 11:10:36;;;;;;;7.43;2.60;;;;;;;;;;5051123;28;20415;-72
2022/01/04 11:13:03;;;;;;;10.87;3.70;;;;;;;;;;5052913;28;20501;-72
2022/01/04 11:15:30;;;;;;;8.03;3.40;;;;;;;;;;5052684;28;20291;-72
2022/01/04 11:17:57;;;;;;;11.43;3.30;;;;;;;;;;5052863;28;20291;-72
2022/01/04 11:20:24;;;;;;;8.17;1.50;;;;;;;;;;5052606;28;20288;-72
2022/01/04 11:22:50;;;;;;;11.43;1.87;;;;;;;;;;5052814;28;20370;-72
2022/01/04 11:25:19;;;;;;;6.97;1.27;;;;;;;;;;5052712;28;20392;-72
2022/01/04 11:27:46;;;;;;;10.10;1.30;;;;;;;;;;5053003;28;20283;-72
2022/01/04 11:30:19;;;;;;;5.63;1.20;;;;;;;;;;5052854;28;20290;-72
2022/01/04 11:32:49;;;;;;;9.83;1.47;;;;;;;;;;5052814;28;20604;-72
2022/01/04 11:35:19;;;;;;;6.90;1.20;;;;;;;;;;5053051;28;20288;-72
2022/01/04 11:37:52;;;;;;;7.77;1.40;;;;;;;;;;5056709;28;20326;-72
2022/01/04 11:40:23;;;;;;;11.37;2.70;;;;;;;;;;5056429;28;20302;-72
2022/01/04 11:42:49;;;;;;;10.03;1.70;;;;;;;;;;5056381;28;20291;-72
2022/01/04 11:45:18;;;;;;;10.23;2.20;;;;;;;;;;5056350;28;20357;-72
2022/01/04 11:47:48;;;;;;;9.67;1.40;;;;;;;;;;5056046;28;20580;-72
2022/01/04 11:50:23;;;;;;;5.43;1.43;;;;;;;;;;5056338;28;20279;-72
2022/01/04 11:52:49;;;;;;;8.10;1.50;;;;;;;;;;5056373;28;20636;-72
2022/01/04 11:55:24;;;;;;;11.40;1.60;;;;;;;;;;5056233;28;20363;-72
2022/01/04 11:57:51;;;;;;;8.88;1.83;;;;;;;;;;5056578;28;20290;-72
2022/01/04 12:00:28;;;;;;;9.93;1.87;;;;;;;;;;5056031;28;20178;-72
2022/01/04 12:03:03;;;;;;;3.80;1.10;;;;;;;;;;5054894;28;20283;-72
2022/01/04 12:05:29;;;;;;;9.93;1.90;;;;;;;;;;5055667;28;20299;-73
2022/01/04 12:07:58;;;;;;;11.97;1.50;;;;;;;;;;5054789;28;20288;-72
2022/01/04 12:10:25;;;;;;;10.57;1.50;;;;;;;;;;5055406;28;20684;-73
2022/01/04 12:13:06;;;;;;;7.73;1.30;;;;;;;;;;5055611;28;20833;-72
2022/01/04 12:15:35;;;;;;;10.83;2.27;;;;;;;;;;5055556;28;20368;-72
2022/01/04 12:18:02;;;;;;;10.53;1.60;;;;;;;;;;5055861;28;20283;-72
2022/01/04 12:20:43;;;;;;;8.10;1.67;;;;;;;;;;5055448;28;20814;-73
2022/01/04 12:23:24;;;;;;;12.93;2.13;;;;;;;;;;5055580;28;20310;-73
2022/01/04 12:26:14;;;;;;;11.73;1.77;;;;;;;;;;5055419;28;20295;-73
2022/01/04 12:28:44;;;;;;;9.43;1.80;;;;;;;;;;5047509;28;20342;-72
2022/01/04 12:31:16;;;;;;;8.23;1.93;;;;;;;;;;5055347;28;20323;-73
2022/01/04 12:33:44;;;;;;;11.20;1.57;;;;;;;;;;5055169;28;20342;-73
2022/01/04 12:36:11;;;;;;;8.73;1.30;;;;;;;;;;5054176;28;20315;-73
2022/01/04 12:38:38;;;;;;;15.30;2.10;;;;;;;;;;5055051;28;20370;-73
2022/01/04 12:41:04;;;;;;;11.67;1.63;;;;;;;;;;5055455;28;20287;-73
2022/01/04 12:43:32;;;;;;;10.33;1.70;;;;;;;;;;5054933;28;20366;-73
2022/01/04 12:45:58;;;;;;;9.63;1.87;;;;;;;;;;5055170;28;20403;-73
2022/01/04 12:48:44;;;;;;;8.03;1.43;;;;;;;;;;5054132;28;20374;-73
2022/01/04 12:51:30;;;;;;;8.38;1.75;;;;;;;;;;5054126;28;20691;-73
2022/01/04 12:53:58;;;;;;;9.60;1.30;;;;;;;;;;5055009;28;20051;-73
2022/01/04 12:56:25;;;;;;;8.67;1.90;;;;;;;;;;5055183;28;20374;-73
2022/01/04 12:58:51;;;;;;;8.37;1.37;;;;;;;;;;5054645;28;20279;-73
2022/01/04 13:01:26;;;;;;;9.77;1.70;;;;;;;;;;5053653;28;20290;-73
2022/01/04 13:03:53;;;;;;;11.90;1.85;;;;;;;;;;5054926;28;20318;-73
2022/01/04 13:06:21;;;;;;;9.87;1.50;;;;;;;;;;5053334;28;20079;-73
2022/01/04 13:08:51;;;;;;;10.63;1.67;;;;;;;;;;5054568;28;20298;-73
2022/01/04 13:11:17;;;;;;;8.33;1.30;;;;;;;;;;5054746;28;20635;-73
2022/01/04 13:13:44;;;;;;;7.63;1.30;;;;;;;;;;5054407;28;20357;-73
2022/01/04 13:16:22;;;;;;;8.67;2.03;;;;;;;;;;5054996;28;20287;-73
2022/01/04 13:18:49;;;;;;;9.03;1.47;;;;;;;;;;5054300;28;20870;-73
2022/01/04 13:21:16;;;;;;;9.90;2.07;;;;;;;;;;5054534;28;20337;-73
2022/01/04 13:23:44;;;;;;;11.17;1.70;;;;;;;;;;5053310;28;20292;-73
2022/01/04 13:26:11;;;;;;;11.93;1.90;;;;;;;;;;5052922;28;20372;-73
2022/01/04 13:28:38;;;;;;;9.87;2.23;;;;;;;;;;5053871;28;20735;-73
2022/01/04 13:31:04;;;;;;;7.33;1.30;;;;;;;;;;5054312;28;20627;-73
2022/01/04 13:33:37;;;;;;;12.57;1.57;;;;;;;;;;5053983;28;20838;-73
2022/01/04 13:36:13;;;;;;;8.53;1.83;;;;;;;;;;5054376;28;20307;-73
2022/01/04 13:38:39;;;;;;;8.13;1.45;;;;;;;;;;5054019;28;20315;-73
2022/01/04 13:41:05;;;;;;;9.47;1.20;;;;;;;;;;5054099;28;20451;-73
2022/01/04 13:43:35;;;;;;;9.40;1.57;;;;;;;;;;5053975;28;20283;-78
2022/01/04 13:46:12;;;;;;;6.40;1.40;;;;;;;;;;5054304;28;20640;-73
2022/01/04 13:48:39;;;;;;;11.20;1.40;;;;;;;;;;5053925;28;20359;-73
2022/01/04 13:51:06;;;;;;;9.63;1.43;;;;;;;;;;5053892;28;20370;-73
2022/01/04 13:53:37;;;;;;;7.07;1.53;;;;;;;;;;5053687;28;20640;-78
2022/01/04 13:56:09;;;;;;;7.33;1.30;;;;;;;;;;5053869;28;20337;-73
2022/01/04 13:58:35;;;;;;;8.60;1.77;;;;;;;;;;5052243;28;20378;-73
2022/01/04 14:01:10;;;;;;;12.37;1.67;;;;;;;;;;5053725;28;20288;-73
2022/01/04 14:03:37;;;;;;;5.35;1.25;;;;;;;;;;5053470;28;20280;-73
2022/01/04 14:06:03;;;;;;;10.80;2.47;;;;;;;;;;5053548;28;20049;-72
2022/01/04 14:08:48;;;;;;;8.27;1.77;;;;;;;;;;5053596;28;20279;-72
2022/01/04 14:11:22;;;;;;;10.63;2.17;;;;;;;;;;5053632;28;20280;-72
2022/01/04 14:13:49;;;;;;;9.20;1.73;;;;;;;;;;5053572;28;20432;-72
2022/01/04 14:16:16;;;;;;;7.47;1.50;;;;;;;;;;5053927;28;20386;-72
2022/01/04 14:19:14;;;;;;;4.93;1.33;;;;;;;;;;5053234;28;20338;-73
2022/01/04 14:21:44;;;;;;;8.30;2.10;;;;;;;;;;5009129;28;20299;-72
2022/01/04 14:24:40;;;;;;;7.70;1.93;;;;;;;;;;5053395;28;20755;-73
2022/01/04 14:27:06;;;;;;;6.88;1.38;;;;;;;;;;5040609;28;20351;-72
2022/01/04 14:29:38;;;;;;;5.93;1.20;;;;;;;;;;5053307;28;20048;-73
2022/01/04 14:32:04;;;;;;;7.53;1.70;;;;;;;;;;5053276;28;20652;-73
2022/01/04 14:34:31;;;;;;;8.63;1.50;;;;;;;;;;5053198;28;20329;-73
2022/01/04 14:36:58;;;;;;;9.13;1.70;;;;;;;;;;5053064;28;20371;-73
2022/01/04 14:39:25;;;;;;;9.63;1.47;;;;;;;;;;5053604;28;20287;-72
2022/01/04 14:41:52;;;;;;;11.17;2.00;;;;;;;;;;5052949;28;20569;-73
2022/01/04 14:44:18;;;;;;;12.30;1.43;;;;;;;;;;5053171;28;20283;-73
2022/01/04 14:46:44;;;;;;;6.10;1.30;;;;;;;;;;5051732;28;20346;-73
2022/01/04 14:49:10;;;;;;;9.47;1.60;;;;;;;;;;5053118;28;20362;-72